createdAt,value
2023-04-09T00:00:32.019Z,42.70
2023-04-09T00:03:00.096Z,40.90
2023-04-09T00:05:28.042Z,45.03
2023-04-09T00:07:56.219Z,41.43
2023-04-09T00:10:24.270Z,46.33
2023-04-09T00:12:54.323Z,43.50
2023-04-09T00:15:30.759Z,42.67
2023-04-09T00:18:00.099Z,41.57
2023-04-09T00:20:28.054Z,44.17
2023-04-09T00:22:56.378Z,43.43
2023-04-09T00:25:24.459Z,43.60
2023-04-09T00:27:53.683Z,45.87
2023-04-09T00:30:21.827Z,41.70
2023-04-09T00:32:50.452Z,45.47
2023-04-09T00:35:18.497Z,42.87
2023-04-09T00:37:46.376Z,42.40
2023-04-09T00:40:14.928Z,41.90
2023-04-09T00:42:43.044Z,44.10
2023-04-09T00:45:12.619Z,46.40
2023-04-09T00:47:42.987Z,43.40
2023-04-09T00:50:11.690Z,45.77
2023-04-09T00:52:39.628Z,43.97
2023-04-09T00:55:10.550Z,43.40
2023-04-09T00:57:38.558Z,44.33
2023-04-09T01:00:08.412Z,46.43
2023-04-09T01:02:38.312Z,49.00
2023-04-09T01:05:07.283Z,46.63
2023-04-09T01:07:46.668Z,43.43
2023-04-09T01:10:23.536Z,43.73
2023-04-09T01:13:01.468Z,42.30
2023-04-09T01:15:36.190Z,46.40
2023-04-09T01:18:12.181Z,49.97
2023-04-09T01:20:42.315Z,43.10
2023-04-09T01:23:19.522Z,42.13
2023-04-09T01:26:03.052Z,47.37
2023-04-09T01:28:45.747Z,46.37
2023-04-09T01:31:18.090Z,45.63
2023-04-09T01:33:46.526Z,41.23
2023-04-09T01:36:15.286Z,36.23
2023-04-09T01:38:45.844Z,36.97
2023-04-09T01:41:17.941Z,39.27
2023-04-09T01:43:47.396Z,39.53
2023-04-09T01:46:16.871Z,37.23
2023-04-09T01:48:47.269Z,40.53
2023-04-09T01:51:15.691Z,37.60
2023-04-09T01:53:43.562Z,38.07
2023-04-09T01:56:11.484Z,43.23
2023-04-09T01:58:40.810Z,38.70
2023-04-09T02:01:13.764Z,38.57
2023-04-09T02:03:47.959Z,40.17
2023-04-09T02:06:22.946Z,40.00
2023-04-09T02:08:53.674Z,35.90
2023-04-09T02:11:24.609Z,42.00
2023-04-09T02:13:55.295Z,37.90
2023-04-09T02:16:24.641Z,37.47
2023-04-09T02:18:54.948Z,39.00
2023-04-09T02:21:24.809Z,40.63
2023-04-09T02:23:52.757Z,38.83
2023-04-09T02:26:20.661Z,36.97
2023-04-09T02:28:48.559Z,40.93
2023-04-09T02:31:16.522Z,40.90
2023-04-09T02:33:45.812Z,35.17
2023-04-09T02:36:14.202Z,37.10
2023-04-09T02:38:42.989Z,34.33
2023-04-09T02:41:11.252Z,34.07
2023-04-09T02:43:39.365Z,41.27
2023-04-09T02:46:08.613Z,39.67
2023-04-09T02:48:37.519Z,32.67
2023-04-09T02:51:08.201Z,31.90
2023-04-09T02:53:37.592Z,35.23
2023-04-09T02:56:05.846Z,34.80
2023-04-09T02:58:33.686Z,30.30
2023-04-09T03:01:01.568Z,29.70
2023-04-09T03:03:30.963Z,31.53
2023-04-09T03:05:59.164Z,29.97
2023-04-09T03:08:28.369Z,32.70
2023-04-09T03:10:57.398Z,30.27
2023-04-09T03:13:25.286Z,31.40
2023-04-09T03:15:53.852Z,36.33
2023-04-09T03:18:21.820Z,34.23
2023-04-09T03:20:50.043Z,35.63
2023-04-09T03:23:18.095Z,31.27
2023-04-09T03:25:49.882Z,32.37
2023-04-09T03:28:19.197Z,31.90
2023-04-09T03:30:51.353Z,33.87
2023-04-09T03:33:20.398Z,34.87
2023-04-09T03:35:55.035Z,39.17
2023-04-09T03:38:41.601Z,36.30
2023-04-09T03:41:23.494Z,33.70
2023-04-09T03:43:52.121Z,36.83
2023-04-09T03:46:25.080Z,42.00
2023-04-09T03:48:53.512Z,38.70
2023-04-09T03:51:22.343Z,36.40
2023-04-09T03:53:56.555Z,35.83
2023-04-09T03:56:27.426Z,31.97
2023-04-09T03:58:55.559Z,31.77
2023-04-09T04:01:28.564Z,32.93
2023-04-09T04:04:00.306Z,30.97
2023-04-09T04:06:38.917Z,34.20
2023-04-09T04:09:22.156Z,30.87
2023-04-09T04:11:58.883Z,31.40
2023-04-09T04:14:42.075Z,34.97
2023-04-09T04:17:21.045Z,35.93
2023-04-09T04:19:51.157Z,35.43
2023-04-09T04:22:18.984Z,39.03
2023-04-09T04:24:50.311Z,36.67
2023-04-09T04:27:22.756Z,37.27
2023-04-09T04:29:51.386Z,34.00
2023-04-09T04:32:26.892Z,33.73
2023-04-09T04:34:56.043Z,33.90
2023-04-09T04:37:27.130Z,28.47
2023-04-09T04:39:59.189Z,36.90
2023-04-09T04:42:28.410Z,35.60
2023-04-09T04:44:56.512Z,37.43
2023-04-09T04:47:37.533Z,35.33
2023-04-09T04:50:07.815Z,35.50
2023-04-09T04:52:45.728Z,32.13
2023-04-09T04:55:13.811Z,35.20
2023-04-09T04:57:43.062Z,35.37
2023-04-09T05:00:13.128Z,36.10
2023-04-09T05:02:41.999Z,35.60
2023-04-09T05:05:19.430Z,34.10
2023-04-09T05:07:57.456Z,33.13
2023-04-09T05:10:25.365Z,31.13
2023-04-09T05:12:54.588Z,32.70
2023-04-09T05:15:30.736Z,30.90
2023-04-09T05:17:59.568Z,35.90
2023-04-09T05:20:28.824Z,32.73
2023-04-09T05:23:05.541Z,31.30
2023-04-09T05:25:39.685Z,29.57
2023-04-09T05:28:13.115Z,31.80
2023-04-09T05:30:42.290Z,32.47
2023-04-09T05:33:10.281Z,30.30
2023-04-09T05:35:39.942Z,31.23
2023-04-09T05:38:08.069Z,33.00
2023-04-09T05:40:36.269Z,32.83
2023-04-09T05:43:07.970Z,33.60
2023-04-09T05:45:42.375Z,33.50
2023-04-09T05:48:10.558Z,29.37
2023-04-09T05:50:51.500Z,32.03
2023-04-09T05:53:22.969Z,36.33
2023-04-09T05:55:51.097Z,34.77
2023-04-09T05:58:21.814Z,31.40
2023-04-09T06:00:52.483Z,30.47
2023-04-09T06:03:21.150Z,33.90
2023-04-09T06:05:49.133Z,33.70
2023-04-09T06:08:17.202Z,34.40
2023-04-09T06:10:45.101Z,30.70
2023-04-09T06:13:14.656Z,33.40
2023-04-09T06:15:42.935Z,31.77
2023-04-09T06:18:12.191Z,34.60
2023-04-09T06:20:40.158Z,32.93
2023-04-09T06:23:08.053Z,35.03
2023-04-09T06:25:37.086Z,35.10
2023-04-09T06:28:05.330Z,34.30
2023-04-09T06:30:33.162Z,32.40
2023-04-09T06:33:01.210Z,35.20
2023-04-09T06:35:30.945Z,32.80
2023-04-09T06:37:59.682Z,32.83
2023-04-09T06:40:28.139Z,30.10
2023-04-09T06:42:55.998Z,29.13
2023-04-09T06:45:31.135Z,32.17
2023-04-09T06:47:59.005Z,30.43
2023-04-09T06:50:26.950Z,31.30
2023-04-09T06:52:56.761Z,34.43
2023-04-09T06:55:24.682Z,30.40
2023-04-09T06:57:52.518Z,31.10
2023-04-09T07:00:20.371Z,32.10
2023-04-09T07:02:48.398Z,33.13
2023-04-09T07:05:16.430Z,31.97
2023-04-09T07:07:44.326Z,32.77
2023-04-09T07:10:13.615Z,35.43
2023-04-09T07:12:41.678Z,34.50
2023-04-09T07:15:09.986Z,35.77
2023-04-09T07:17:37.917Z,35.57
2023-04-09T07:20:06.827Z,33.57
2023-04-09T07:22:34.809Z,36.00
2023-04-09T07:25:02.620Z,30.47
2023-04-09T07:27:31.805Z,28.03
2023-04-09T07:30:00.667Z,32.00
2023-04-09T07:32:29.231Z,33.33
2023-04-09T07:34:59.231Z,32.83
2023-04-09T07:37:27.399Z,35.07
2023-04-09T07:39:55.424Z,34.60
2023-04-09T07:42:23.423Z,34.07
2023-04-09T07:44:52.578Z,34.23
2023-04-09T07:47:20.884Z,33.17
2023-04-09T07:49:48.974Z,35.03
2023-04-09T07:52:16.897Z,34.03
2023-04-09T07:54:44.691Z,33.97
2023-04-09T07:57:12.571Z,33.90
2023-04-09T07:59:40.405Z,35.00
2023-04-09T08:02:12.737Z,34.53
2023-04-09T08:04:42.469Z,34.17
2023-04-09T08:07:11.391Z,34.30
2023-04-09T08:09:39.275Z,34.70
2023-04-09T08:12:07.101Z,34.80
2023-04-09T08:14:35.049Z,35.80
2023-04-09T08:17:02.903Z,36.30
2023-04-09T08:19:32.200Z,35.90
2023-04-09T08:21:59.950Z,35.83
2023-04-09T08:24:28.134Z,37.57
2023-04-09T08:26:56.580Z,36.60
2023-04-09T08:29:24.503Z,35.57
2023-04-09T08:31:52.343Z,35.10
2023-04-09T08:34:21.989Z,35.53
2023-04-09T08:36:51.287Z,36.37
2023-04-09T08:39:20.628Z,34.40
2023-04-09T08:41:48.935Z,34.30
2023-04-09T08:44:17.552Z,33.03
2023-04-09T08:46:45.696Z,33.77
2023-04-09T08:49:13.546Z,32.87
2023-04-09T08:51:46.419Z,33.80
2023-04-09T08:54:19.898Z,31.67
2023-04-09T08:56:48.373Z,31.77
2023-04-09T08:59:18.428Z,31.77
2023-04-09T09:01:47.913Z,31.80
2023-04-09T09:04:16.252Z,30.17
2023-04-09T09:06:44.850Z,31.50
2023-04-09T09:09:14.817Z,33.60
2023-04-09T09:11:45.429Z,33.87
2023-04-09T09:14:15.350Z,32.67
2023-04-09T09:16:46.593Z,32.50
2023-04-09T09:19:30.436Z,30.93
2023-04-09T09:21:59.228Z,30.47
2023-04-09T09:24:27.072Z,31.60
2023-04-09T09:26:57.289Z,31.03
2023-04-09T09:29:25.859Z,29.50
2023-04-09T09:31:55.521Z,29.57
2023-04-09T09:34:24.874Z,30.23
2023-04-09T09:36:52.809Z,29.70
2023-04-09T09:39:22.315Z,31.67
2023-04-09T09:42:09.280Z,31.37
2023-04-09T09:44:37.177Z,30.10
2023-04-09T09:47:05.535Z,30.10
2023-04-09T09:49:33.498Z,32.27
2023-04-09T09:52:03.804Z,28.73
2023-04-09T09:54:36.597Z,28.43
2023-04-09T09:57:08.556Z,32.20
2023-04-09T09:59:41.675Z,30.30
2023-04-09T10:02:16.696Z,29.70
2023-04-09T10:04:45.184Z,31.03
2023-04-09T10:07:14.687Z,29.20
2023-04-09T10:09:46.659Z,29.07
2023-04-09T10:12:14.969Z,29.87
2023-04-09T10:14:44.506Z,28.53
2023-04-09T10:17:12.822Z,28.00
2023-04-09T10:19:45.580Z,27.03
2023-04-09T10:22:16.929Z,29.90
2023-04-09T10:24:45.927Z,29.23
2023-04-09T10:27:16.171Z,30.23
2023-04-09T10:29:47.909Z,30.13
2023-04-09T10:32:21.548Z,28.23
2023-04-09T10:34:50.654Z,31.03
2023-04-09T10:37:23.154Z,28.93
2023-04-09T10:39:52.338Z,28.97
2023-04-09T10:42:24.561Z,27.43
2023-04-09T10:45:10.755Z,27.63
2023-04-09T10:47:40.331Z,32.83
2023-04-09T10:50:19.519Z,29.33
2023-04-09T10:52:48.359Z,29.10
2023-04-09T10:55:36.844Z,28.63
2023-04-09T10:58:05.542Z,27.40
2023-04-09T11:00:38.344Z,27.40
2023-04-09T11:03:24.363Z,28.27
2023-04-09T11:06:01.995Z,28.97
2023-04-09T11:08:31.853Z,26.17
2023-04-09T11:11:01.279Z,26.47
2023-04-09T11:13:31.428Z,27.17
2023-04-09T11:16:01.346Z,28.13
2023-04-09T11:18:31.271Z,26.10
2023-04-09T11:21:00.378Z,25.37
2023-04-09T11:23:28.872Z,26.40
2023-04-09T11:25:57.910Z,24.50
2023-04-09T11:28:27.174Z,26.00
2023-04-09T11:30:55.148Z,26.93
2023-04-09T11:33:24.290Z,26.67
2023-04-09T11:35:52.557Z,27.23
2023-04-09T11:38:20.498Z,26.00
2023-04-09T11:40:49.229Z,24.07
2023-04-09T11:43:18.252Z,18.90
2023-04-09T11:45:48.457Z,24.60
2023-04-09T11:48:18.066Z,25.57
2023-04-09T11:50:49.322Z,23.73
2023-04-09T11:53:18.865Z,23.07
2023-04-09T11:55:49.202Z,23.67
2023-04-09T11:58:17.412Z,24.17
2023-04-09T12:00:45.720Z,23.27
2023-04-09T12:03:16.291Z,26.10
2023-04-09T12:05:50.975Z,21.80
2023-04-09T12:08:24.609Z,22.17
2023-04-09T12:10:53.812Z,23.07
2023-04-09T12:13:22.562Z,23.10
2023-04-09T12:15:51.409Z,22.03
2023-04-09T12:18:23.453Z,22.50
2023-04-09T12:20:51.551Z,23.10
2023-04-09T12:23:20.766Z,21.97
2023-04-09T12:25:48.680Z,22.03
2023-04-09T12:28:18.251Z,21.37
2023-04-09T12:30:46.899Z,21.60
2023-04-09T12:33:14.940Z,21.67
2023-04-09T12:35:42.933Z,21.37
2023-04-09T12:38:10.763Z,21.43
2023-04-09T12:40:40.546Z,21.83
2023-04-09T12:43:08.399Z,20.70
2023-04-09T12:45:36.515Z,20.70
2023-04-09T12:48:04.557Z,20.90
2023-04-09T12:50:33.189Z,20.97
2023-04-09T12:53:01.257Z,21.37
2023-04-09T12:55:29.125Z,21.43
2023-04-09T12:57:58.975Z,20.87
2023-04-09T13:00:30.721Z,22.53
2023-04-09T13:02:58.924Z,19.73
2023-04-09T13:05:26.838Z,20.03
2023-04-09T13:07:54.706Z,19.23
2023-04-09T13:10:22.499Z,20.30
2023-04-09T13:12:51.340Z,20.50
2023-04-09T13:15:20.627Z,20.47
2023-04-09T13:17:48.544Z,19.70
2023-04-09T13:20:16.587Z,20.80
2023-04-09T13:22:48.499Z,19.87
2023-04-09T13:25:16.624Z,19.13
2023-04-09T13:27:44.527Z,20.03
2023-04-09T13:30:12.801Z,18.50
2023-04-09T13:32:42.219Z,19.40
2023-04-09T13:35:11.706Z,17.47
2023-04-09T13:37:39.530Z,17.50
2023-04-09T13:40:10.263Z,18.17
2023-04-09T13:42:38.415Z,17.83
2023-04-09T13:45:07.503Z,19.03
2023-04-09T13:47:36.489Z,17.30
2023-04-09T13:50:10.125Z,17.77
2023-04-09T13:52:37.975Z,16.63
2023-04-09T13:55:07.480Z,18.40
2023-04-09T13:57:35.557Z,16.77
2023-04-09T14:00:04.816Z,17.33
2023-04-09T14:02:33.119Z,16.90
2023-04-09T14:05:02.420Z,17.40
2023-04-09T14:07:32.054Z,17.13
2023-04-09T14:10:00.945Z,18.27
2023-04-09T14:12:28.867Z,18.03
2023-04-09T14:14:56.694Z,17.23
2023-04-09T14:17:24.679Z,18.50
2023-04-09T14:19:52.546Z,17.07
2023-04-09T14:22:20.399Z,18.03
2023-04-09T14:24:49.612Z,16.97
2023-04-09T14:27:17.597Z,18.53
2023-04-09T14:29:45.507Z,18.20
2023-04-09T14:32:13.328Z,18.10
2023-04-09T14:34:41.411Z,18.03
2023-04-09T14:37:09.342Z,17.77
2023-04-09T14:39:37.334Z,17.83
2023-04-09T14:42:06.561Z,19.03
2023-04-09T14:44:34.446Z,18.47
2023-04-09T14:47:02.628Z,18.77
2023-04-09T14:49:30.710Z,19.20
2023-04-09T14:51:59.411Z,18.33
2023-04-09T14:54:28.788Z,18.23
2023-04-09T14:56:57.565Z,18.97
2023-04-09T14:59:27.078Z,18.90
2023-04-09T15:01:55.037Z,19.57
2023-04-09T15:04:23.437Z,16.83
2023-04-09T15:06:51.330Z,18.40
2023-04-09T15:09:19.389Z,19.57
2023-04-09T15:11:47.316Z,18.07
2023-04-09T15:14:15.676Z,19.37
2023-04-09T15:16:44.968Z,19.07
2023-04-09T15:19:12.902Z,18.83
2023-04-09T15:21:40.675Z,19.03
2023-04-09T15:24:08.530Z,19.20
2023-04-09T15:26:36.352Z,19.17
2023-04-09T15:29:07.472Z,16.17
2023-04-09T15:31:36.170Z,19.33
2023-04-09T15:34:05.574Z,18.47
2023-04-09T15:36:33.436Z,19.50
2023-04-09T15:39:01.484Z,19.20
2023-04-09T15:41:31.974Z,19.33
2023-04-09T15:44:00.138Z,19.30
2023-04-09T15:46:27.955Z,18.90
2023-04-09T15:48:55.917Z,18.73
2023-04-09T15:51:25.228Z,20.03
2023-04-09T15:53:54.110Z,20.00
2023-04-09T15:56:22.000Z,19.47
2023-04-09T15:58:49.894Z,19.07
2023-04-09T16:01:18.377Z,16.50
2023-04-09T16:03:51.830Z,19.20
2023-04-09T16:06:20.059Z,20.07
2023-04-09T16:08:49.200Z,19.10
2023-04-09T16:11:17.168Z,18.20
2023-04-09T16:13:45.093Z,20.50
2023-04-09T16:16:13.046Z,20.47
2023-04-09T16:18:40.947Z,20.20
2023-04-09T16:21:08.890Z,19.97
2023-04-09T16:23:36.711Z,19.57
2023-04-09T16:26:06.389Z,20.20
2023-04-09T16:28:34.286Z,19.67
2023-04-09T16:31:02.115Z,20.87
2023-04-09T16:33:30.158Z,20.90
2023-04-09T16:35:58.019Z,20.93
2023-04-09T16:38:27.512Z,20.80
2023-04-09T16:40:55.645Z,20.43
2023-04-09T16:43:26.199Z,19.93
2023-04-09T16:45:54.136Z,20.63
2023-04-09T16:48:22.093Z,21.27
2023-04-09T16:50:49.909Z,20.33
2023-04-09T16:53:17.727Z,21.20
2023-04-09T16:55:45.603Z,20.73
2023-04-09T16:58:13.401Z,21.20
2023-04-09T17:00:44.110Z,22.37
2023-04-09T17:03:13.411Z,23.00
2023-04-09T17:05:41.391Z,22.30
2023-04-09T17:08:09.253Z,21.37
2023-04-09T17:10:37.827Z,20.50
2023-04-09T17:13:05.754Z,20.80
2023-04-09T17:15:33.564Z,21.13
2023-04-09T17:18:04.156Z,21.00
2023-04-09T17:20:32.570Z,21.40
2023-04-09T17:23:00.755Z,19.80
2023-04-09T17:25:28.666Z,19.80
2023-04-09T17:27:56.552Z,20.13
2023-04-09T17:30:24.475Z,19.63
2023-04-09T17:32:52.386Z,20.03
2023-04-09T17:35:21.758Z,19.33
2023-04-09T17:37:49.794Z,20.03
2023-04-09T17:40:18.704Z,20.00
2023-04-09T17:42:46.951Z,19.73
2023-04-09T17:45:14.789Z,19.77
2023-04-09T17:47:42.973Z,19.50
2023-04-09T17:50:11.237Z,19.77
2023-04-09T17:52:40.656Z,20.13
2023-04-09T17:55:11.550Z,19.17
2023-04-09T17:57:40.054Z,20.27
2023-04-09T18:00:09.486Z,19.03
2023-04-09T18:02:47.060Z,19.30
2023-04-09T18:05:15.539Z,18.80
2023-04-09T18:07:44.810Z,19.83
2023-04-09T18:10:12.793Z,19.63
2023-04-09T18:12:40.617Z,18.83
2023-04-09T18:15:11.823Z,20.00
2023-04-09T18:17:39.662Z,19.90
2023-04-09T18:20:08.428Z,19.27
2023-04-09T18:22:36.279Z,19.53
2023-04-09T18:25:06.964Z,20.00
2023-04-09T18:27:34.937Z,20.03
2023-04-09T18:30:03.039Z,19.17
2023-04-09T18:32:32.226Z,20.57
2023-04-09T18:35:00.224Z,20.47
2023-04-09T18:37:28.152Z,20.50
2023-04-09T18:39:56.069Z,21.00
2023-04-09T18:42:25.292Z,20.13
2023-04-09T18:44:53.197Z,20.00
2023-04-09T18:47:21.283Z,20.50
2023-04-09T18:49:49.432Z,21.77
2023-04-09T18:52:17.318Z,22.57
2023-04-09T18:54:45.312Z,21.60
2023-04-09T18:57:13.116Z,21.37
2023-04-09T18:59:42.347Z,20.80
2023-04-09T19:02:10.204Z,18.87
2023-04-09T19:04:40.017Z,20.20
2023-04-09T19:07:08.769Z,19.40
2023-04-09T19:09:37.265Z,21.57
2023-04-09T19:12:05.905Z,21.30
2023-04-09T19:14:33.755Z,21.73
2023-04-09T19:17:03.100Z,21.90
2023-04-09T19:19:30.969Z,19.77
2023-04-09T19:21:59.542Z,19.23
2023-04-09T19:24:28.724Z,20.10
2023-04-09T19:26:57.215Z,27.60
2023-04-09T19:29:25.084Z,24.80
2023-04-09T19:31:52.921Z,40.10
2023-04-09T19:34:22.344Z,38.90
2023-04-09T19:36:51.736Z,24.90
2023-04-09T19:39:19.805Z,23.87
2023-04-09T19:41:47.694Z,22.23
2023-04-09T19:44:15.554Z,23.63
2023-04-09T19:46:43.487Z,23.60
2023-04-09T19:49:11.316Z,24.47
2023-04-09T19:51:40.729Z,22.67
2023-04-09T19:54:10.600Z,22.90
2023-04-09T19:56:38.965Z,23.40
2023-04-09T19:59:07.212Z,24.13
2023-04-09T20:01:35.175Z,22.50
2023-04-09T20:04:03.173Z,23.50
2023-04-09T20:06:31.224Z,21.37
2023-04-09T20:09:01.090Z,21.97
2023-04-09T20:11:28.951Z,21.70
2023-04-09T20:13:57.205Z,24.97
2023-04-09T20:16:25.159Z,22.63
2023-04-09T20:18:53.318Z,21.67
2023-04-09T20:21:21.405Z,23.17
2023-04-09T20:23:49.342Z,22.80
2023-04-09T20:26:18.551Z,19.80
2023-04-09T20:28:46.353Z,19.07
2023-04-09T20:31:14.206Z,24.57
2023-04-09T20:33:41.995Z,21.20
2023-04-09T20:36:15.942Z,23.30
2023-04-09T20:38:44.048Z,20.97
2023-04-09T20:41:11.845Z,19.70
2023-04-09T20:43:41.230Z,18.37
2023-04-09T20:46:09.600Z,21.33
2023-04-09T20:48:37.568Z,19.83
2023-04-09T20:51:09.558Z,22.77
2023-04-09T20:53:37.508Z,20.70
2023-04-09T20:56:06.184Z,19.60
2023-04-09T20:58:34.451Z,19.77
2023-04-09T21:01:09.437Z,19.77
2023-04-09T21:03:39.920Z,18.93
2023-04-09T21:06:09.052Z,19.57
2023-04-09T21:08:38.302Z,20.37
2023-04-09T21:11:06.677Z,19.30
2023-04-09T21:13:46.520Z,19.20
2023-04-09T21:16:24.714Z,19.43
2023-04-09T21:18:52.934Z,20.13
2023-04-09T21:21:21.248Z,20.83
2023-04-09T21:23:49.154Z,19.50
2023-04-09T21:26:16.972Z,19.90
2023-04-09T21:28:45.795Z,19.30
2023-04-09T21:31:15.737Z,19.47
2023-04-09T21:33:45.932Z,20.33
2023-04-09T21:36:14.142Z,20.83
2023-04-09T21:38:42.064Z,19.60
2023-04-09T21:41:09.944Z,18.50
2023-04-09T21:43:38.331Z,21.33
2023-04-09T21:46:06.629Z,20.70
2023-04-09T21:48:34.576Z,20.37
2023-04-09T21:51:03.909Z,19.77
2023-04-09T21:53:31.982Z,20.17
2023-04-09T21:55:59.951Z,20.27
2023-04-09T21:58:27.856Z,20.77
2023-04-09T22:00:56.282Z,21.03
2023-04-09T22:03:24.617Z,19.40
2023-04-09T22:05:52.654Z,19.83
2023-04-09T22:08:21.890Z,20.77
2023-04-09T22:10:50.132Z,19.60
2023-04-09T22:13:17.976Z,20.53
2023-04-09T22:15:46.055Z,20.23
2023-04-09T22:18:13.932Z,21.00
2023-04-09T22:20:42.203Z,21.53
2023-04-09T22:23:10.400Z,20.10
2023-04-09T22:25:39.628Z,20.33
2023-04-09T22:28:07.454Z,20.37
2023-04-09T22:30:35.368Z,20.63
2023-04-09T22:33:03.233Z,22.53
2023-04-09T22:35:31.310Z,20.93
2023-04-09T22:37:59.513Z,21.43
2023-04-09T22:40:28.743Z,21.47
2023-04-09T22:42:57.993Z,21.17
2023-04-09T22:45:27.712Z,21.33
2023-04-09T22:47:55.627Z,21.50
2023-04-09T22:50:23.727Z,22.20
2023-04-09T22:52:54.317Z,21.70
2023-04-09T22:55:23.319Z,21.93
2023-04-09T22:57:51.251Z,21.57
2023-04-09T23:00:20.669Z,21.43
2023-04-09T23:02:53.397Z,20.70
2023-04-09T23:05:21.516Z,22.10
2023-04-09T23:07:49.350Z,22.43
2023-04-09T23:10:17.628Z,21.97
2023-04-09T23:12:45.567Z,21.47
2023-04-09T23:15:13.432Z,21.43
2023-04-09T23:17:42.837Z,21.77
2023-04-09T23:20:14.459Z,22.90
2023-04-09T23:22:42.349Z,23.10
2023-04-09T23:25:10.725Z,22.23
2023-04-09T23:27:38.785Z,21.87
2023-04-09T23:30:07.791Z,22.00
2023-04-09T23:32:35.876Z,22.60
2023-04-09T23:35:05.554Z,22.13
2023-04-09T23:37:33.444Z,22.33
2023-04-09T23:40:01.206Z,22.43
2023-04-09T23:42:32.756Z,22.50
2023-04-09T23:45:03.745Z,22.13
2023-04-09T23:47:33.524Z,21.70
2023-04-09T23:50:04.755Z,22.23
2023-04-09T23:52:34.909Z,21.83
2023-04-09T23:55:03.063Z,21.50
2023-04-09T23:57:30.917Z,22.03
2023-04-09T23:59:58.878Z,21.73
